createdAt,value
2023-02-06T00:01:53.948Z,11.93
2023-02-06T00:04:20.944Z,11.93
2023-02-06T00:06:47.761Z,13.77
2023-02-06T00:09:14.812Z,12.43
2023-02-06T00:11:41.811Z,13.17
2023-02-06T00:14:08.809Z,14.00
2023-02-06T00:16:36.139Z,13.33
2023-02-06T00:19:04.597Z,13.40
2023-02-06T00:21:31.514Z,13.70
2023-02-06T00:23:59.998Z,14.33
2023-02-06T00:26:27.256Z,14.20
2023-02-06T00:28:54.620Z,14.57
2023-02-06T00:31:21.525Z,15.20
2023-02-06T00:33:48.581Z,15.00
2023-02-06T00:36:17.079Z,14.83
2023-02-06T00:38:44.265Z,15.07
2023-02-06T00:41:11.157Z,14.93
2023-02-06T00:43:38.063Z,15.23
2023-02-06T00:46:05.450Z,15.77
2023-02-06T00:48:32.383Z,15.20
2023-02-06T00:50:59.287Z,16.47
2023-02-06T00:53:27.895Z,15.23
2023-02-06T00:55:54.780Z,16.17
2023-02-06T00:58:21.849Z,16.17
2023-02-06T01:00:48.734Z,16.60
2023-02-06T01:03:15.603Z,16.00
2023-02-06T01:05:42.465Z,15.77
2023-02-06T01:08:09.778Z,16.27
2023-02-06T01:10:41.379Z,16.40
2023-02-06T01:13:08.246Z,16.13
2023-02-06T01:15:35.792Z,16.93
2023-02-06T01:18:03.610Z,17.40
2023-02-06T01:20:31.535Z,17.00
2023-02-06T01:22:58.407Z,16.80
2023-02-06T01:25:25.550Z,16.13
2023-02-06T01:27:53.813Z,15.77
2023-02-06T01:30:20.723Z,16.17
2023-02-06T01:32:47.816Z,16.80
2023-02-06T01:35:16.255Z,17.30
2023-02-06T01:37:43.202Z,17.20
2023-02-06T01:40:14.853Z,17.33
2023-02-06T01:42:42.095Z,17.13
2023-02-06T01:45:40.859Z,16.93
2023-02-06T01:48:12.541Z,16.87
2023-02-06T01:50:41.814Z,16.00
2023-02-06T01:53:11.099Z,14.93
2023-02-06T01:55:39.870Z,16.03
2023-02-06T01:58:08.303Z,16.93
2023-02-06T02:00:36.848Z,17.23
2023-02-06T02:03:04.802Z,16.57
2023-02-06T02:05:33.297Z,16.23
2023-02-06T02:08:06.390Z,16.10
2023-02-06T02:10:35.406Z,16.40
2023-02-06T02:13:02.271Z,17.80
2023-02-06T02:15:41.430Z,17.00
2023-02-06T02:18:23.993Z,16.57
2023-02-06T02:21:27.753Z,16.57
2023-02-06T02:24:03.123Z,17.10
2023-02-06T02:27:13.288Z,17.40
2023-02-06T02:30:22.958Z,16.87
2023-02-06T02:33:10.377Z,18.10
2023-02-06T02:35:48.362Z,17.80
2023-02-06T02:38:29.528Z,18.40
2023-02-06T02:41:04.147Z,18.47
2023-02-06T02:43:38.645Z,18.33
2023-02-06T02:46:14.048Z,18.37
2023-02-06T02:48:44.084Z,17.90
2023-02-06T02:51:13.304Z,18.50
2023-02-06T02:53:41.354Z,17.90
2023-02-06T02:56:18.008Z,19.60
2023-02-06T02:58:47.360Z,18.80
2023-02-06T03:01:21.140Z,19.03
2023-02-06T03:03:50.685Z,18.70
2023-02-06T03:06:47.904Z,18.73
2023-02-06T03:09:26.581Z,18.50
2023-02-06T03:12:04.882Z,18.90
2023-02-06T03:14:34.331Z,18.47
2023-02-06T03:17:05.393Z,18.20
2023-02-06T03:19:35.887Z,18.07
2023-02-06T03:22:05.191Z,17.73
2023-02-06T03:24:36.772Z,18.77
2023-02-06T03:27:08.120Z,17.30
2023-02-06T03:29:37.612Z,18.17
2023-02-06T03:32:08.064Z,18.43
2023-02-06T03:34:43.472Z,17.93
2023-02-06T03:37:12.918Z,18.00
2023-02-06T03:39:40.295Z,18.30
2023-02-06T03:42:10.999Z,18.97
2023-02-06T03:44:43.936Z,18.87
2023-02-06T03:47:11.553Z,18.60
2023-02-06T03:49:41.305Z,17.50
2023-02-06T03:52:11.959Z,18.63
2023-02-06T03:54:42.850Z,18.90
2023-02-06T03:57:12.904Z,18.50
2023-02-06T03:59:40.323Z,18.67
2023-02-06T04:02:07.434Z,19.53
2023-02-06T04:04:37.167Z,18.63
2023-02-06T04:07:12.856Z,17.57
2023-02-06T04:09:41.733Z,19.50
2023-02-06T04:12:09.391Z,18.23
2023-02-06T04:14:36.845Z,19.20
2023-02-06T04:17:04.385Z,18.13
2023-02-06T04:19:31.283Z,18.77
2023-02-06T04:21:58.575Z,19.33
2023-02-06T04:24:25.690Z,18.80
2023-02-06T04:26:53.918Z,19.00
2023-02-06T04:29:20.898Z,19.13
2023-02-06T04:31:47.750Z,18.33
2023-02-06T04:34:14.795Z,19.53
2023-02-06T04:36:41.868Z,18.30
2023-02-06T04:39:09.072Z,18.90
2023-02-06T04:41:36.018Z,18.03
2023-02-06T04:44:04.452Z,18.63
2023-02-06T04:46:31.323Z,18.97
2023-02-06T04:48:58.120Z,19.97
2023-02-06T04:51:24.966Z,17.97
2023-02-06T04:53:51.785Z,18.13
2023-02-06T04:56:18.772Z,18.33
2023-02-06T04:58:45.568Z,18.53
2023-02-06T05:01:16.718Z,17.80
2023-02-06T05:03:43.837Z,18.83
2023-02-06T05:06:10.698Z,19.70
2023-02-06T05:08:37.882Z,18.90
2023-02-06T05:11:04.989Z,19.07
2023-02-06T05:13:33.848Z,19.47
2023-02-06T05:16:05.644Z,19.60
2023-02-06T05:18:33.900Z,18.63
2023-02-06T05:21:01.020Z,19.53
2023-02-06T05:23:28.391Z,19.77
2023-02-06T05:25:55.315Z,19.47
2023-02-06T05:28:22.317Z,18.77
2023-02-06T05:30:49.734Z,20.00
2023-02-06T05:33:16.804Z,20.67
2023-02-06T05:35:45.271Z,20.57
2023-02-06T05:38:12.318Z,20.83
2023-02-06T05:40:39.135Z,19.53
2023-02-06T05:43:06.085Z,19.10
2023-02-06T05:45:35.129Z,19.77
2023-02-06T05:48:02.958Z,20.47
2023-02-06T05:50:29.829Z,19.40
2023-02-06T05:53:00.500Z,18.90
2023-02-06T05:55:27.451Z,19.57
2023-02-06T05:57:54.282Z,19.20
2023-02-06T06:00:21.808Z,19.57
2023-02-06T06:02:48.582Z,18.97
2023-02-06T06:05:15.705Z,18.43
2023-02-06T06:07:42.570Z,18.07
2023-02-06T06:10:11.641Z,18.87
2023-02-06T06:12:38.509Z,18.87
2023-02-06T06:15:06.281Z,19.47
2023-02-06T06:17:33.111Z,19.23
2023-02-06T06:19:59.971Z,18.47
2023-02-06T06:22:26.840Z,18.37
2023-02-06T06:24:53.662Z,18.37
2023-02-06T06:27:21.887Z,19.40
2023-02-06T06:29:48.817Z,18.27
2023-02-06T06:32:15.631Z,18.60
2023-02-06T06:34:42.512Z,19.20
2023-02-06T06:37:09.401Z,18.13
2023-02-06T06:39:36.219Z,19.30
2023-02-06T06:42:04.436Z,18.63
2023-02-06T06:44:32.723Z,19.63
2023-02-06T06:46:59.661Z,18.17
2023-02-06T06:49:28.750Z,17.60
2023-02-06T06:51:55.826Z,18.87
2023-02-06T06:54:22.840Z,18.47
2023-02-06T06:56:49.736Z,18.40
2023-02-06T06:59:17.605Z,17.97
2023-02-06T07:01:45.797Z,17.83
2023-02-06T07:04:12.639Z,17.27
2023-02-06T07:06:39.560Z,17.90
2023-02-06T07:09:06.390Z,18.23
2023-02-06T07:11:33.241Z,17.33
2023-02-06T07:14:00.117Z,17.63
2023-02-06T07:16:27.477Z,18.87
2023-02-06T07:18:55.660Z,18.73
2023-02-06T07:21:22.717Z,18.70
2023-02-06T07:23:49.648Z,19.27
2023-02-06T07:26:16.523Z,18.30
2023-02-06T07:28:43.505Z,16.90
2023-02-06T07:31:10.758Z,17.23
2023-02-06T07:33:37.644Z,17.63
2023-02-06T07:36:10.367Z,16.53
2023-02-06T07:38:37.271Z,17.10
2023-02-06T07:41:04.337Z,17.23
2023-02-06T07:43:31.525Z,16.50
2023-02-06T07:46:00.836Z,17.47
2023-02-06T07:48:28.362Z,17.97
2023-02-06T07:50:55.242Z,16.53
2023-02-06T07:53:23.829Z,16.83
2023-02-06T07:55:50.681Z,16.97
2023-02-06T07:58:17.491Z,16.60
2023-02-06T08:00:45.925Z,17.07
2023-02-06T08:03:12.908Z,17.63
2023-02-06T08:05:40.277Z,16.53
2023-02-06T08:08:07.374Z,15.27
2023-02-06T08:10:37.461Z,16.13
2023-02-06T08:13:04.327Z,15.33
2023-02-06T08:15:31.197Z,16.37
2023-02-06T08:17:58.021Z,16.20
2023-02-06T08:20:24.844Z,15.13
2023-02-06T08:22:51.681Z,16.23
2023-02-06T08:25:18.658Z,15.50
2023-02-06T08:27:46.881Z,15.87
2023-02-06T08:30:14.386Z,14.50
2023-02-06T08:32:41.216Z,15.27
2023-02-06T08:35:08.478Z,14.47
2023-02-06T08:37:35.394Z,14.20
2023-02-06T08:40:02.223Z,14.50
2023-02-06T08:42:29.045Z,14.57
2023-02-06T08:44:57.264Z,13.10
2023-02-06T08:47:24.180Z,13.87
2023-02-06T08:49:51.537Z,14.07
2023-02-06T08:52:18.504Z,13.23
2023-02-06T08:54:45.362Z,13.40
2023-02-06T08:57:12.919Z,13.60
2023-02-06T08:59:39.845Z,13.00
2023-02-06T09:02:10.057Z,12.63
2023-02-06T09:04:37.790Z,12.87
2023-02-06T09:07:05.129Z,11.27
2023-02-06T09:09:31.966Z,11.77
2023-02-06T09:12:03.548Z,12.03
2023-02-06T09:14:31.360Z,13.30
2023-02-06T09:16:58.385Z,13.73
2023-02-06T09:19:26.798Z,12.53
2023-02-06T09:21:53.790Z,10.83
2023-02-06T09:24:20.906Z,11.70
2023-02-06T09:26:59.417Z,12.53
2023-02-06T09:29:28.693Z,15.67
2023-02-06T09:31:57.320Z,11.17
2023-02-06T09:34:26.057Z,10.73
2023-02-06T09:36:56.866Z,10.10
2023-02-06T09:39:24.414Z,9.77
2023-02-06T09:41:53.163Z,7.27
2023-02-06T09:44:25.200Z,9.10
2023-02-06T09:46:55.683Z,8.70
2023-02-06T09:49:30.044Z,9.13
2023-02-06T09:52:12.370Z,9.13
2023-02-06T09:54:50.516Z,8.57
2023-02-06T09:57:26.614Z,8.17
2023-02-06T09:59:59.281Z,7.70
2023-02-06T10:02:57.667Z,7.80
2023-02-06T10:05:34.021Z,7.87
2023-02-06T10:08:14.049Z,7.67
2023-02-06T10:10:48.320Z,7.83
2023-02-06T10:13:20.931Z,8.13
2023-02-06T10:15:51.624Z,7.00
2023-02-06T10:18:24.125Z,7.27
2023-02-06T10:20:55.691Z,6.20
2023-02-06T10:23:29.959Z,6.57
2023-02-06T10:26:05.435Z,5.30
2023-02-06T10:28:35.259Z,5.97
2023-02-06T10:31:16.018Z,6.53
2023-02-06T10:33:50.651Z,6.47
2023-02-06T10:36:36.316Z,4.97
2023-02-06T10:39:18.080Z,5.37
2023-02-06T10:41:52.762Z,6.80
2023-02-06T10:44:27.045Z,6.37
2023-02-06T10:46:55.665Z,6.23
2023-02-06T10:49:30.351Z,5.87
2023-02-06T10:52:01.648Z,6.10
2023-02-06T10:54:33.694Z,5.30
2023-02-06T10:57:01.906Z,5.00
2023-02-06T10:59:32.675Z,4.07
2023-02-06T11:02:22.816Z,4.47
2023-02-06T11:04:54.369Z,3.90
2023-02-06T11:07:27.233Z,3.80
2023-02-06T11:09:54.392Z,4.37
2023-02-06T11:12:30.099Z,3.77
2023-02-06T11:15:00.684Z,4.23
2023-02-06T11:17:28.339Z,4.50
2023-02-06T11:20:01.708Z,4.27
2023-02-06T11:22:34.887Z,4.70
2023-02-06T11:25:20.667Z,4.10
2023-02-06T11:27:47.897Z,3.93
2023-02-06T11:30:29.442Z,3.67
2023-02-06T11:33:04.645Z,3.40
2023-02-06T11:35:37.254Z,3.70
2023-02-06T11:38:14.460Z,4.10
2023-02-06T11:40:41.442Z,3.90
2023-02-06T11:43:17.077Z,4.00
2023-02-06T11:45:44.392Z,4.00
2023-02-06T11:48:33.747Z,4.13
2023-02-06T11:51:00.869Z,3.80
2023-02-06T11:53:29.088Z,4.00
2023-02-06T11:56:01.761Z,4.30
2023-02-06T11:58:30.217Z,4.00
2023-02-06T12:01:00.327Z,4.00
2023-02-06T12:03:31.327Z,3.70
2023-02-06T12:06:03.149Z,3.70
2023-02-06T12:08:40.565Z,3.37
2023-02-06T12:11:14.074Z,3.10
2023-02-06T12:13:46.356Z,3.20
2023-02-06T12:16:15.340Z,3.30
2023-02-06T12:18:45.101Z,3.43
2023-02-06T12:21:16.413Z,3.17
2023-02-06T12:23:52.801Z,3.20
2023-02-06T12:26:21.865Z,3.60
2023-02-06T12:28:55.881Z,3.47
2023-02-06T12:31:27.521Z,3.27
2023-02-06T12:34:00.619Z,3.40
2023-02-06T12:36:34.445Z,3.50
2023-02-06T12:39:06.025Z,3.70
2023-02-06T12:41:45.571Z,3.43
2023-02-06T12:44:21.771Z,5.77
2023-02-06T12:46:54.914Z,6.60
2023-02-06T12:49:27.020Z,4.20
2023-02-06T12:51:57.945Z,4.00
2023-02-06T12:54:30.683Z,4.07
2023-02-06T12:57:03.617Z,3.53
2023-02-06T12:59:58.285Z,4.17
2023-02-06T13:03:02.035Z,4.70
2023-02-06T13:05:33.665Z,4.30
2023-02-06T13:08:06.039Z,4.70
2023-02-06T13:10:35.660Z,4.87
2023-02-06T13:13:03.359Z,4.33
2023-02-06T13:15:35.226Z,4.60
2023-02-06T13:18:02.345Z,5.27
2023-02-06T13:20:29.216Z,5.23
2023-02-06T13:23:22.454Z,4.53
2023-02-06T13:25:50.997Z,5.17
2023-02-06T13:28:45.514Z,5.60
2023-02-06T13:31:34.321Z,5.17
2023-02-06T13:34:16.030Z,5.50
2023-02-06T13:36:52.008Z,5.33
2023-02-06T13:39:29.124Z,5.37
2023-02-06T13:42:01.856Z,5.30
2023-02-06T13:44:31.557Z,5.90
2023-02-06T13:47:30.946Z,6.23
2023-02-06T13:50:24.594Z,5.60
2023-02-06T13:53:21.880Z,4.90
2023-02-06T13:56:00.636Z,4.43
2023-02-06T13:58:39.390Z,4.87
2023-02-06T14:01:13.823Z,5.13
2023-02-06T14:03:44.884Z,4.80
2023-02-06T14:06:36.279Z,4.90
2023-02-06T14:09:17.534Z,4.10
2023-02-06T14:12:15.399Z,3.50
2023-02-06T14:14:59.547Z,3.27
2023-02-06T14:17:39.003Z,3.40
2023-02-06T14:20:16.888Z,3.00
2023-02-06T14:22:49.879Z,2.87
2023-02-06T14:25:31.171Z,3.07
2023-02-06T14:28:08.338Z,3.10
2023-02-06T14:30:45.604Z,3.10
2023-02-06T14:33:41.006Z,3.50
2023-02-06T14:36:19.877Z,2.70
2023-02-06T14:39:08.170Z,3.30
2023-02-06T14:41:39.447Z,3.50
2023-02-06T14:44:14.021Z,3.27
2023-02-06T14:46:45.077Z,3.50
2023-02-06T14:49:17.328Z,3.50
2023-02-06T14:51:49.463Z,3.53
2023-02-06T14:54:29.748Z,3.20
2023-02-06T14:56:58.224Z,3.47
2023-02-06T14:59:25.176Z,3.30
2023-02-06T15:01:55.104Z,3.40
2023-02-06T15:04:24.564Z,3.37
2023-02-06T15:06:52.883Z,3.10
2023-02-06T15:09:25.968Z,3.63
2023-02-06T15:11:53.328Z,3.77
2023-02-06T15:14:22.504Z,3.60
2023-02-06T15:16:51.145Z,3.37
2023-02-06T15:19:21.484Z,3.33
2023-02-06T15:21:49.246Z,3.00
2023-02-06T15:24:31.167Z,3.43
2023-02-06T15:27:05.099Z,3.33
2023-02-06T15:29:32.021Z,3.20
2023-02-06T15:32:04.306Z,3.40
2023-02-06T15:34:32.928Z,3.10
2023-02-06T15:36:59.862Z,3.40
2023-02-06T15:39:27.193Z,3.60
2023-02-06T15:41:54.631Z,3.10
2023-02-06T15:44:27.446Z,3.67
2023-02-06T15:46:56.117Z,3.20
2023-02-06T15:49:36.332Z,2.80
2023-02-06T15:52:04.551Z,3.20
2023-02-06T15:54:31.785Z,3.30
2023-02-06T15:57:03.386Z,3.30
2023-02-06T15:59:32.791Z,3.27
2023-02-06T16:02:00.222Z,3.33
2023-02-06T16:04:32.162Z,3.60
2023-02-06T16:07:18.013Z,3.43
2023-02-06T16:09:51.294Z,3.13
2023-02-06T16:12:18.921Z,3.37
2023-02-06T16:14:54.002Z,3.60
2023-02-06T16:17:26.473Z,3.50
2023-02-06T16:19:56.036Z,3.30
2023-02-06T16:22:26.735Z,3.90
2023-02-06T16:24:56.159Z,4.20
2023-02-06T16:27:25.822Z,3.73
2023-02-06T16:29:54.956Z,3.53
2023-02-06T16:32:25.269Z,3.40
2023-02-06T16:34:52.596Z,3.37
2023-02-06T16:37:21.768Z,3.30
2023-02-06T16:39:50.210Z,3.60
2023-02-06T16:42:19.642Z,3.20
2023-02-06T16:44:49.941Z,3.30
2023-02-06T16:47:20.022Z,3.70
2023-02-06T16:49:51.011Z,3.57
2023-02-06T16:52:21.965Z,3.40
2023-02-06T16:54:50.573Z,3.40
2023-02-06T16:57:23.531Z,3.50
2023-02-06T16:59:50.811Z,3.90
2023-02-06T17:02:18.125Z,3.70
2023-02-06T17:04:45.014Z,3.87
2023-02-06T17:07:18.509Z,3.80
2023-02-06T17:09:47.591Z,3.90
2023-02-06T17:12:17.747Z,3.40
2023-02-06T17:14:44.897Z,3.63
2023-02-06T17:17:13.691Z,3.60
2023-02-06T17:19:41.140Z,3.80
2023-02-06T17:22:09.279Z,4.10
2023-02-06T17:24:37.220Z,3.63
2023-02-06T17:27:05.619Z,3.97
2023-02-06T17:29:34.208Z,4.10
2023-02-06T17:32:03.347Z,3.20
2023-02-06T17:34:30.326Z,3.60
2023-02-06T17:36:57.290Z,3.33
2023-02-06T17:39:24.657Z,3.10
2023-02-06T17:41:51.991Z,2.80
2023-02-06T17:44:19.073Z,3.00
2023-02-06T17:46:48.640Z,2.90
2023-02-06T17:49:16.631Z,2.97
2023-02-06T17:51:44.568Z,2.63
2023-02-06T17:54:12.128Z,2.90
2023-02-06T17:56:39.189Z,2.70
2023-02-06T17:59:06.078Z,2.70
2023-02-06T18:01:32.956Z,2.80
2023-02-06T18:04:01.154Z,3.53
2023-02-06T18:06:32.093Z,3.33
2023-02-06T18:08:58.878Z,2.60
2023-02-06T18:11:25.767Z,2.53
2023-02-06T18:13:52.709Z,2.53
2023-02-06T18:16:21.860Z,2.70
2023-02-06T18:18:49.591Z,3.20
2023-02-06T18:21:19.447Z,3.40
2023-02-06T18:23:47.184Z,3.20
2023-02-06T18:26:14.320Z,2.77
2023-02-06T18:28:41.225Z,3.37
2023-02-06T18:31:21.633Z,3.23
2023-02-06T18:33:48.516Z,3.10
2023-02-06T18:36:17.168Z,3.30
2023-02-06T18:38:44.174Z,2.80
2023-02-06T18:41:33.645Z,3.13
2023-02-06T18:44:01.108Z,3.07
2023-02-06T18:46:28.018Z,3.30
2023-02-06T18:48:55.369Z,3.37
2023-02-06T18:51:23.831Z,3.10
2023-02-06T18:53:50.866Z,3.80
2023-02-06T18:56:17.975Z,3.30
2023-02-06T18:58:45.066Z,3.30
2023-02-06T19:01:13.833Z,3.47
2023-02-06T19:03:40.774Z,3.17
2023-02-06T19:06:12.455Z,3.57
2023-02-06T19:08:44.062Z,3.40
2023-02-06T19:11:12.374Z,3.37
2023-02-06T19:13:40.574Z,3.43
2023-02-06T19:16:12.095Z,3.90
2023-02-06T19:18:42.085Z,3.60
2023-02-06T19:21:11.521Z,3.93
2023-02-06T19:23:40.050Z,3.80
2023-02-06T19:26:07.856Z,4.00
2023-02-06T19:28:35.679Z,4.00
2023-02-06T19:31:04.178Z,3.93
2023-02-06T19:33:33.747Z,3.83
2023-02-06T19:36:06.020Z,4.50
2023-02-06T19:38:32.891Z,4.03
2023-02-06T19:41:06.672Z,4.13
2023-02-06T19:43:34.559Z,3.80
2023-02-06T19:46:03.564Z,4.23
2023-02-06T19:48:30.615Z,4.23
2023-02-06T19:51:02.554Z,4.50
2023-02-06T19:53:30.478Z,4.20
2023-02-06T19:55:57.355Z,5.27
2023-02-06T19:58:28.933Z,4.90
2023-02-06T20:00:55.871Z,4.53
2023-02-06T20:03:23.452Z,4.43
2023-02-06T20:05:50.369Z,4.00
2023-02-06T20:08:17.408Z,4.47
2023-02-06T20:10:44.354Z,4.30
2023-02-06T20:13:11.179Z,4.57
2023-02-06T20:15:39.769Z,4.60
2023-02-06T20:18:06.608Z,4.37
2023-02-06T20:20:33.815Z,4.70
2023-02-06T20:23:00.780Z,4.80
2023-02-06T20:25:27.827Z,4.50
2023-02-06T20:27:54.701Z,4.73
2023-02-06T20:30:24.176Z,4.80
2023-02-06T20:32:52.401Z,4.87
2023-02-06T20:35:19.362Z,5.00
2023-02-06T20:37:46.232Z,4.60
2023-02-06T20:40:13.038Z,4.77
2023-02-06T20:42:44.296Z,4.63
2023-02-06T20:45:11.919Z,4.87
2023-02-06T20:47:39.351Z,5.27
2023-02-06T20:50:08.869Z,4.80
2023-02-06T20:52:36.169Z,4.67
2023-02-06T20:55:03.363Z,4.60
2023-02-06T20:57:30.933Z,5.07
2023-02-06T20:59:57.856Z,5.07
2023-02-06T21:02:24.818Z,5.37
2023-02-06T21:04:52.327Z,4.87
2023-02-06T21:07:20.666Z,5.33
2023-02-06T21:09:48.167Z,4.93
2023-02-06T21:12:15.087Z,5.27
2023-02-06T21:14:42.252Z,5.30
2023-02-06T21:17:09.202Z,4.93
2023-02-06T21:19:36.165Z,5.17
2023-02-06T21:22:03.470Z,5.20
2023-02-06T21:24:31.726Z,5.27
2023-02-06T21:26:58.628Z,5.10
2023-02-06T21:29:25.659Z,5.67
2023-02-06T21:32:07.247Z,5.30
2023-02-06T21:34:39.342Z,5.40
2023-02-06T21:37:06.238Z,5.77
2023-02-06T21:39:34.561Z,5.70
2023-02-06T21:42:01.643Z,5.27
2023-02-06T21:44:28.936Z,5.70
2023-02-06T21:46:56.060Z,5.57
2023-02-06T21:49:23.380Z,5.63
2023-02-06T21:51:50.846Z,5.67
2023-02-06T21:54:18.194Z,5.83
2023-02-06T21:56:46.471Z,4.97
2023-02-06T21:59:13.445Z,5.20
2023-02-06T22:01:41.230Z,5.67
2023-02-06T22:04:09.817Z,5.03
2023-02-06T22:06:37.049Z,5.80
2023-02-06T22:09:07.635Z,6.27
2023-02-06T22:11:36.051Z,5.70
2023-02-06T22:14:06.399Z,6.47
2023-02-06T22:16:33.848Z,6.07
2023-02-06T22:19:00.815Z,5.53
2023-02-06T22:21:29.825Z,6.00
2023-02-06T22:23:58.471Z,6.10
2023-02-06T22:26:26.432Z,5.60
2023-02-06T22:28:53.578Z,5.67
2023-02-06T22:31:24.612Z,6.10
2023-02-06T22:33:52.223Z,5.80
2023-02-06T22:36:20.900Z,6.27
2023-02-06T22:38:52.414Z,6.90
2023-02-06T22:41:19.539Z,7.93
2023-02-06T22:43:49.425Z,6.87
2023-02-06T22:46:19.159Z,7.30
2023-02-06T22:48:47.497Z,6.97
2023-02-06T22:51:14.352Z,7.33
2023-02-06T22:53:41.903Z,7.37
2023-02-06T22:56:27.362Z,7.73
2023-02-06T22:58:55.356Z,6.83
2023-02-06T23:01:25.175Z,7.20
2023-02-06T23:03:54.212Z,7.17
2023-02-06T23:06:21.943Z,7.80
2023-02-06T23:08:48.835Z,6.93
2023-02-06T23:11:16.141Z,6.93
2023-02-06T23:13:43.182Z,6.67
2023-02-06T23:16:10.551Z,7.20
2023-02-06T23:18:37.783Z,6.70
2023-02-06T23:21:07.841Z,7.27
2023-02-06T23:23:34.692Z,6.57
2023-02-06T23:26:01.561Z,6.50
2023-02-06T23:28:29.102Z,6.40
2023-02-06T23:30:56.066Z,6.60
2023-02-06T23:33:23.440Z,5.40
2023-02-06T23:35:50.788Z,5.67
2023-02-06T23:38:19.453Z,5.50
2023-02-06T23:40:47.584Z,5.97
2023-02-06T23:43:14.423Z,6.57
2023-02-06T23:45:41.827Z,6.73
2023-02-06T23:48:08.806Z,7.33
2023-02-06T23:50:36.228Z,7.27
2023-02-06T23:53:03.138Z,6.67
2023-02-06T23:55:31.423Z,6.80
2023-02-06T23:57:58.356Z,6.93
